createdAt,value
2019-05-22T00:01:10.039Z,18.03
2019-05-22T00:03:44.441Z,19.87
2019-05-22T00:06:13.902Z,21.27
2019-05-22T00:08:42.862Z,22.07
2019-05-22T00:11:11.447Z,24.37
2019-05-22T00:13:40.535Z,25.17
2019-05-22T00:16:08.330Z,25.77
2019-05-22T00:18:36.959Z,26.73
2019-05-22T00:21:03.710Z,24.50
2019-05-22T00:23:30.816Z,28.73
2019-05-22T00:25:57.232Z,26.10
2019-05-22T00:28:24.788Z,26.80
2019-05-22T00:30:51.960Z,25.67
2019-05-22T00:33:18.634Z,27.07
2019-05-22T00:35:46.651Z,28.13
2019-05-22T00:38:14.453Z,25.23
2019-05-22T00:40:50.328Z,25.47
2019-05-22T00:43:18.035Z,24.60
2019-05-22T00:45:48.198Z,24.53
2019-05-22T00:48:15.549Z,23.97
2019-05-22T00:50:48.913Z,23.60
2019-05-22T00:53:47.361Z,23.43
2019-05-22T00:56:28.899Z,21.57
2019-05-22T00:59:01.275Z,22.17
2019-05-22T01:01:36.973Z,22.43
2019-05-22T01:04:05.383Z,21.50
2019-05-22T03:05:31.975Z,22.03
2019-05-22T03:07:58.835Z,21.90
2019-05-22T03:10:25.966Z,21.07
2019-05-22T03:12:52.829Z,20.23
2019-05-22T03:15:21.209Z,23.20
2019-05-22T03:17:50.584Z,20.20
2019-05-22T03:20:20.337Z,22.70
2019-05-22T03:23:13.693Z,21.43
2019-05-22T03:25:41.417Z,23.20
2019-05-22T03:28:10.149Z,25.23
2019-05-22T03:30:39.365Z,26.43
2019-05-22T03:33:07.323Z,22.50
2019-05-22T03:35:42.851Z,20.30
2019-05-22T03:38:09.996Z,21.77
2019-05-22T03:40:37.085Z,22.43
2019-05-22T03:43:14.546Z,24.30
2019-05-22T03:45:41.637Z,21.33
2019-05-22T03:48:09.409Z,22.37
2019-05-22T03:50:36.839Z,22.03
2019-05-22T03:53:13.285Z,19.97
2019-05-22T03:55:40.275Z,19.60
2019-05-22T03:58:08.256Z,24.07
2019-05-22T04:00:35.543Z,25.07
2019-05-22T04:03:04.288Z,22.63
2019-05-22T04:05:31.249Z,20.20
2019-05-22T04:08:04.499Z,21.33
2019-05-22T04:10:33.622Z,19.83
2019-05-22T04:13:00.665Z,25.07
2019-05-22T04:15:27.982Z,21.67
2019-05-22T04:18:04.601Z,18.50
2019-05-22T04:20:31.947Z,22.53
2019-05-22T04:23:01.527Z,22.47
2019-05-22T04:25:29.010Z,19.30
2019-05-22T04:27:56.246Z,16.97
2019-05-22T04:30:22.897Z,16.53
2019-05-22T04:33:01.741Z,21.00
2019-05-22T04:35:28.381Z,19.83
2019-05-22T04:37:56.269Z,18.93
2019-05-22T04:40:53.569Z,17.47
2019-05-22T04:43:23.362Z,16.07
2019-05-22T04:45:50.592Z,16.80
2019-05-22T04:48:21.111Z,17.57
2019-05-22T04:50:49.443Z,17.83
2019-05-22T04:53:17.174Z,15.77
2019-05-22T04:55:44.484Z,13.70
2019-05-22T04:58:11.336Z,12.80
2019-05-22T05:00:37.959Z,16.67
2019-05-22T05:03:04.653Z,12.97
2019-05-22T05:05:34.026Z,11.97
2019-05-22T05:08:01.327Z,10.73
2019-05-22T05:10:30.793Z,11.47
2019-05-22T05:12:58.012Z,12.00
2019-05-22T05:15:24.703Z,9.97
2019-05-22T05:17:51.217Z,9.57
2019-05-22T05:20:22.397Z,10.33
2019-05-22T05:22:47.778Z,12.60
2019-05-22T05:25:16.466Z,10.30
2019-05-22T05:27:43.329Z,9.20
2019-05-22T05:30:10.339Z,9.40
2019-05-22T05:32:37.368Z,9.80
2019-05-22T05:35:06.568Z,8.40
2019-05-22T05:37:34.015Z,8.10
2019-05-22T05:40:24.184Z,7.23
2019-05-22T05:42:50.887Z,8.33
2019-05-22T05:45:17.340Z,8.50
2019-05-22T05:47:44.544Z,8.37
2019-05-22T05:52:45.363Z,7.23
2019-05-22T05:55:12.358Z,9.83
2019-05-22T05:58:22.351Z,9.50
2019-05-22T06:00:53.348Z,7.73
2019-05-22T06:03:33.976Z,7.30
2019-05-22T06:06:19.142Z,8.17
2019-05-22T06:08:45.798Z,7.83
2019-05-22T06:11:40.243Z,7.40
2019-05-22T06:14:09.339Z,8.07
2019-05-22T06:17:13.337Z,9.03
2019-05-22T06:19:42.955Z,9.37
2019-05-22T06:22:09.701Z,11.03
2019-05-22T06:24:56.606Z,9.33
2019-05-22T06:27:27.684Z,11.30
2019-05-22T06:30:02.016Z,14.43
2019-05-22T06:33:33.396Z,11.90
2019-05-22T06:36:01.978Z,13.37
2019-05-22T06:38:48.709Z,12.80
2019-05-22T06:41:18.829Z,12.10
2019-05-22T06:44:26.945Z,12.07
2019-05-22T06:46:53.877Z,8.70
2019-05-22T06:49:42.519Z,11.80
2019-05-22T06:52:09.816Z,11.77
2019-05-22T06:54:37.782Z,9.90
2019-05-22T06:57:07.862Z,10.30
2019-05-22T06:59:35.042Z,12.83
2019-05-22T07:02:10.879Z,12.53
2019-05-22T07:04:45.612Z,11.47
2019-05-22T07:07:13.323Z,14.27
2019-05-22T07:09:41.237Z,13.47
2019-05-22T07:12:24.198Z,14.17
2019-05-22T07:15:42.283Z,15.67
2019-05-22T07:18:14.025Z,14.30
2019-05-22T07:20:42.144Z,15.40
2019-05-22T07:23:16.077Z,15.13
2019-05-22T07:25:43.850Z,17.33
2019-05-22T07:28:10.750Z,15.00
2019-05-22T07:30:38.192Z,14.67
2019-05-22T07:33:05.097Z,18.03
2019-05-22T07:35:46.186Z,17.37
2019-05-22T07:38:00.609Z,21.67
2019-05-22T07:40:30.772Z,17.17
2019-05-22T07:42:57.677Z,17.60
2019-05-22T07:45:28.718Z,17.33
2019-05-22T07:47:56.549Z,14.27
2019-05-22T07:50:23.670Z,16.53
2019-05-22T07:52:50.399Z,13.20
2019-05-22T07:55:18.993Z,13.77
2019-05-22T07:57:54.758Z,14.43
2019-05-22T08:00:21.423Z,16.13
2019-05-22T08:02:49.581Z,18.87
2019-05-22T08:05:16.834Z,16.77
2019-05-22T08:07:45.214Z,18.07
2019-05-22T08:10:13.405Z,17.47
2019-05-22T08:12:40.008Z,19.47
2019-05-22T08:15:08.007Z,16.57
2019-05-22T08:17:34.572Z,15.60
2019-05-22T08:20:01.273Z,19.50
2019-05-22T08:22:28.697Z,17.27
2019-05-22T08:24:55.999Z,17.63
2019-05-22T08:27:22.727Z,18.40
2019-05-22T08:29:49.877Z,14.37
2019-05-22T08:32:17.476Z,16.73
2019-05-22T08:34:44.142Z,16.93
2019-05-22T08:37:15.234Z,17.80
2019-05-22T08:39:43.388Z,16.23
2019-05-22T08:42:12.443Z,20.23
2019-05-22T08:44:39.597Z,20.70
2019-05-22T08:47:07.451Z,20.00
2019-05-22T08:49:34.575Z,18.80
2019-05-22T08:52:01.490Z,15.80
2019-05-22T08:54:29.915Z,14.30
2019-05-22T08:56:56.704Z,13.77
2019-05-22T08:59:23.730Z,15.27
2019-05-22T09:01:50.869Z,14.73
2019-05-22T09:04:17.854Z,15.37
2019-05-22T09:06:44.523Z,15.03
2019-05-22T09:09:11.705Z,17.50
2019-05-22T09:11:38.581Z,16.17
2019-05-22T09:14:05.754Z,15.77
2019-05-22T09:16:38.109Z,17.73
2019-05-22T09:19:05.782Z,16.83
2019-05-22T09:21:33.695Z,15.40
2019-05-22T09:24:00.798Z,15.03
2019-05-22T09:26:28.480Z,13.20
2019-05-22T09:28:55.109Z,12.97
2019-05-22T09:31:21.735Z,16.10
2019-05-22T09:33:49.091Z,13.80
2019-05-22T09:36:16.469Z,12.83
2019-05-22T09:38:45.303Z,13.63
2019-05-22T09:41:12.000Z,14.47
2019-05-22T09:43:38.908Z,14.20
2019-05-22T09:46:05.948Z,13.77
2019-05-22T09:48:33.547Z,14.37
2019-05-22T09:51:02.306Z,11.73
2019-05-22T09:53:30.533Z,14.80
2019-05-22T09:55:58.268Z,12.97
2019-05-22T09:58:25.005Z,12.87
2019-05-22T10:00:52.162Z,13.17
2019-05-22T10:03:19.481Z,14.83
2019-05-22T10:05:47.739Z,11.97
2019-05-22T10:08:14.378Z,12.53
2019-05-22T10:10:43.392Z,13.63
2019-05-22T10:13:10.171Z,12.97
2019-05-22T10:15:36.876Z,12.90
2019-05-22T10:18:03.558Z,13.40
2019-05-22T10:20:30.570Z,11.47
2019-05-22T10:23:12.496Z,11.33
2019-05-22T10:25:27.016Z,13.13
2019-05-22T10:28:03.845Z,10.27
2019-05-22T10:30:31.830Z,10.53
2019-05-22T10:32:58.662Z,10.43
2019-05-22T10:35:28.757Z,15.60
2019-05-22T10:37:56.055Z,12.07
2019-05-22T10:40:23.073Z,12.57
2019-05-22T10:42:49.973Z,14.90
2019-05-22T10:45:16.764Z,12.10
2019-05-22T10:47:43.368Z,13.20
2019-05-22T10:50:10.028Z,12.17
2019-05-22T10:52:37.015Z,11.40
2019-05-22T10:55:04.446Z,11.57
2019-05-22T10:57:33.050Z,10.27
2019-05-22T11:00:01.006Z,11.27
2019-05-22T11:02:28.967Z,10.77
2019-05-22T11:04:55.914Z,10.97
2019-05-22T11:07:22.974Z,12.23
2019-05-22T11:09:49.606Z,8.80
2019-05-22T11:12:16.557Z,8.53
2019-05-22T11:14:47.066Z,11.27
2019-05-22T11:17:14.794Z,10.63
2019-05-22T11:19:41.411Z,8.47
2019-05-22T11:22:11.177Z,9.20
2019-05-22T11:24:37.895Z,9.00
2019-05-22T11:27:04.773Z,13.03
2019-05-22T11:29:32.132Z,8.77
2019-05-22T11:31:59.031Z,9.93
2019-05-22T11:34:25.988Z,10.37
2019-05-22T11:36:53.921Z,11.30
2019-05-22T11:39:38.156Z,9.03
2019-05-22T11:41:52.114Z,19.03
2019-05-22T11:44:18.867Z,12.00
2019-05-22T11:46:45.519Z,10.00
2019-05-22T11:49:12.961Z,8.77
2019-05-22T11:51:39.811Z,13.23
2019-05-22T11:54:09.619Z,10.20
2019-05-22T11:56:35.385Z,10.07
2019-05-22T11:59:02.641Z,8.63
2019-05-22T12:01:29.498Z,10.17
2019-05-22T12:03:58.127Z,9.00
2019-05-22T12:06:25.291Z,9.90
2019-05-22T12:08:52.321Z,9.63
2019-05-22T12:11:19.673Z,8.27
2019-05-22T12:13:46.479Z,8.33
2019-05-22T12:16:13.106Z,9.27
2019-05-22T12:18:40.298Z,10.87
2019-05-22T12:21:07.366Z,9.60
2019-05-22T12:23:34.087Z,7.87
2019-05-22T12:26:01.806Z,8.80
2019-05-22T12:28:30.195Z,7.53
2019-05-22T12:30:57.467Z,8.37
2019-05-22T12:33:25.060Z,8.87
2019-05-22T12:35:52.261Z,8.83
2019-05-22T12:38:21.315Z,8.70
2019-05-22T12:40:48.122Z,9.17
2019-05-22T12:43:15.347Z,10.33
2019-05-22T12:45:42.161Z,10.47
2019-05-22T12:48:09.500Z,9.30
2019-05-22T12:50:40.559Z,7.73
2019-05-22T12:53:09.447Z,8.47
2019-05-22T12:55:37.086Z,7.53
2019-05-22T12:58:04.962Z,7.43
2019-05-22T13:00:35.827Z,6.70
2019-05-22T13:03:02.771Z,7.87
2019-05-22T13:05:29.520Z,8.50
2019-05-22T13:07:57.606Z,7.23
2019-05-22T13:10:25.253Z,8.60
2019-05-22T13:12:52.263Z,8.50
2019-05-22T13:15:21.060Z,7.37
2019-05-22T13:17:48.429Z,8.53
2019-05-22T13:20:18.874Z,8.27
2019-05-22T13:22:47.412Z,7.43
2019-05-22T13:25:16.209Z,6.40
2019-05-22T13:27:43.969Z,6.73
2019-05-22T13:30:12.433Z,5.00
2019-05-22T13:32:39.198Z,5.57
2019-05-22T13:35:06.904Z,4.90
2019-05-22T13:37:34.269Z,4.60
2019-05-22T13:40:01.864Z,4.57
2019-05-22T13:42:28.670Z,4.87
2019-05-22T13:44:55.828Z,6.67
2019-05-22T13:47:23.081Z,5.07
2019-05-22T13:49:50.887Z,4.93
2019-05-22T13:52:18.596Z,5.27
2019-05-22T13:54:46.052Z,4.37
2019-05-22T13:57:13.028Z,3.90
2019-05-22T13:59:39.749Z,4.60
2019-05-22T14:02:07.194Z,4.40
2019-05-22T14:04:34.830Z,3.70
2019-05-22T14:07:02.497Z,3.97
2019-05-22T14:09:29.363Z,5.40
2019-05-22T14:11:55.949Z,4.87
2019-05-22T14:14:23.082Z,5.93
2019-05-22T14:16:49.714Z,6.50
2019-05-22T14:19:16.467Z,5.60
2019-05-22T14:21:50.907Z,6.23
2019-05-22T14:24:11.861Z,7.60
2019-05-22T14:28:14.903Z,8.40
2019-05-22T14:30:42.557Z,8.40
2019-05-22T14:33:09.212Z,9.60
2019-05-22T14:35:48.502Z,7.83
2019-05-22T14:38:08.866Z,8.33
2019-05-22T14:40:36.546Z,7.80
2019-05-22T14:43:03.292Z,8.03
2019-05-22T14:45:29.824Z,7.93
2019-05-22T14:47:57.092Z,7.67
2019-05-22T14:50:24.010Z,7.97
2019-05-22T14:52:51.026Z,8.63
2019-05-22T14:55:17.792Z,7.50
2019-05-22T14:57:44.782Z,9.13
2019-05-22T15:00:12.042Z,8.23
2019-05-22T15:02:39.220Z,7.77
2019-05-22T15:05:08.366Z,7.30
2019-05-22T15:07:36.201Z,10.20
2019-05-22T15:10:03.934Z,8.70
2019-05-22T15:12:30.750Z,8.03
2019-05-22T15:14:57.365Z,8.90
2019-05-22T15:17:32.474Z,14.40
2019-05-22T15:19:52.507Z,11.57
2019-05-22T15:22:19.399Z,11.47
2019-05-22T15:24:46.013Z,11.13
2019-05-22T15:27:13.664Z,10.93
2019-05-22T15:29:40.206Z,13.80
2019-05-22T15:32:08.668Z,11.20
2019-05-22T15:34:37.095Z,11.03
2019-05-22T15:37:04.135Z,11.43
2019-05-22T15:39:32.243Z,9.70
2019-05-22T15:41:59.980Z,10.63
2019-05-22T15:44:27.273Z,11.10
2019-05-22T15:46:54.454Z,10.83
2019-05-22T15:49:22.039Z,9.87
2019-05-22T15:51:49.590Z,13.07
2019-05-22T15:54:17.824Z,9.93
2019-05-22T15:56:50.090Z,10.10
2019-05-22T15:59:16.869Z,10.03
2019-05-22T16:01:47.068Z,11.53
2019-05-22T16:04:14.267Z,9.90
2019-05-22T16:06:41.265Z,10.13
2019-05-22T16:09:12.505Z,9.93
2019-05-22T16:11:40.926Z,9.83
2019-05-22T16:14:09.900Z,10.37
2019-05-22T16:16:37.153Z,11.77
2019-05-22T16:19:04.800Z,9.90
2019-05-22T16:21:32.374Z,12.20
2019-05-22T16:24:00.902Z,8.97
2019-05-22T16:26:27.926Z,10.40
2019-05-22T16:28:54.835Z,11.80
2019-05-22T16:31:24.989Z,10.10
2019-05-22T16:33:55.750Z,11.73
2019-05-22T16:36:23.582Z,10.83
2019-05-22T16:38:50.387Z,9.17
2019-05-22T16:41:17.993Z,11.00
2019-05-22T16:43:49.329Z,9.03
2019-05-22T16:46:15.816Z,9.47
2019-05-22T16:48:43.180Z,7.87
2019-05-22T16:51:10.112Z,9.10
2019-05-22T16:53:37.138Z,6.90
2019-05-22T16:56:04.804Z,7.63
2019-05-22T16:58:33.450Z,9.97
2019-05-22T17:01:01.024Z,6.83
2019-05-22T17:03:27.681Z,7.10
2019-05-22T17:05:54.859Z,5.83
2019-05-22T17:08:22.122Z,6.33
2019-05-22T17:10:52.378Z,6.50
2019-05-22T17:13:19.195Z,8.63
2019-05-22T17:15:46.090Z,7.20
2019-05-22T17:18:14.760Z,6.80
2019-05-22T17:20:42.474Z,7.43
2019-05-22T17:23:09.155Z,6.10
2019-05-22T17:25:36.633Z,7.97
2019-05-22T17:28:03.634Z,6.47
2019-05-22T17:30:31.800Z,7.40
2019-05-22T17:32:59.059Z,5.87
2019-05-22T17:35:26.195Z,6.20
2019-05-22T17:37:53.075Z,5.87
2019-05-22T17:40:21.004Z,5.63
2019-05-22T17:42:51.741Z,8.20
2019-05-22T17:45:20.388Z,6.43
2019-05-22T17:47:46.904Z,7.23
2019-05-22T17:50:26.235Z,6.07
2019-05-22T17:52:46.604Z,5.77
2019-05-22T17:55:14.274Z,6.57
2019-05-22T17:57:41.014Z,9.07
2019-05-22T18:00:15.302Z,5.33
2019-05-22T18:02:42.145Z,5.23
2019-05-22T18:05:10.388Z,4.97
2019-05-22T18:07:38.036Z,5.87
2019-05-22T18:10:05.836Z,5.77
2019-05-22T18:12:32.674Z,5.67
2019-05-22T18:15:11.572Z,4.70
2019-05-22T18:17:38.887Z,4.57
2019-05-22T18:20:53.712Z,6.20
2019-05-22T18:23:22.604Z,7.63
2019-05-22T18:25:49.608Z,7.57
2019-05-22T18:28:17.129Z,7.63
2019-05-22T18:30:46.525Z,5.27
2019-05-22T18:33:13.257Z,11.67
2019-05-22T18:35:40.255Z,5.80
2019-05-22T18:38:07.262Z,8.23
2019-05-22T18:40:34.238Z,5.00
2019-05-22T18:43:00.983Z,4.93
2019-05-22T18:45:28.034Z,7.73
2019-05-22T18:47:54.930Z,6.93
2019-05-22T18:50:23.377Z,5.23
2019-05-22T18:53:28.118Z,4.93
2019-05-22T18:55:57.869Z,6.80
2019-05-22T18:58:29.678Z,5.23
2019-05-22T19:00:57.039Z,6.63
2019-05-22T19:03:25.564Z,5.93
2019-05-22T19:05:56.490Z,5.43
2019-05-22T19:10:59.273Z,6.37
2019-05-22T19:13:28.304Z,8.93
2019-05-22T19:15:55.787Z,6.97
2019-05-22T19:18:30.178Z,6.37
2019-05-22T19:21:05.796Z,8.93
2019-05-22T19:23:35.853Z,6.67
2019-05-22T19:26:05.722Z,6.77
2019-05-22T19:28:43.679Z,6.10
2019-05-22T19:31:43.868Z,6.63
2019-05-22T19:34:11.537Z,6.70
2019-05-22T19:36:39.051Z,8.77
2019-05-22T19:39:06.891Z,7.07
2019-05-22T19:41:40.471Z,9.37
2019-05-22T19:44:08.602Z,8.63
2019-05-22T19:46:36.708Z,7.57
2019-05-22T19:49:03.705Z,9.13
2019-05-22T19:51:30.649Z,10.17
2019-05-22T19:53:57.260Z,7.13
2019-05-22T19:56:24.171Z,8.03
2019-05-22T19:58:55.622Z,8.60
2019-05-22T20:01:22.202Z,9.07
2019-05-22T20:03:52.584Z,10.53
2019-05-22T20:06:20.266Z,6.87
2019-05-22T20:08:47.140Z,8.80
2019-05-22T20:11:14.775Z,8.37
2019-05-22T20:13:42.438Z,10.13
2019-05-22T20:16:09.375Z,9.73
2019-05-22T20:18:36.119Z,7.43
2019-05-22T20:21:03.824Z,6.60
2019-05-22T20:23:36.304Z,5.80
2019-05-22T20:26:00.885Z,7.10
2019-05-22T20:28:27.483Z,8.67
2019-05-22T20:30:54.261Z,6.93
2019-05-22T20:33:26.468Z,5.83
2019-05-22T20:35:51.711Z,5.90
2019-05-22T20:38:18.435Z,7.10
2019-05-22T20:40:45.426Z,8.83
2019-05-22T20:43:18.878Z,6.66
2019-05-22T20:45:47.163Z,7.80
2019-05-22T20:48:29.784Z,6.57
2019-05-22T20:50:59.040Z,6.87
2019-05-22T20:53:26.630Z,10.77
2019-05-22T20:55:53.791Z,7.70
2019-05-22T20:59:15.678Z,6.13
2019-05-22T21:01:45.384Z,6.47
2019-05-22T21:04:13.190Z,6.87
2019-05-22T21:06:45.731Z,7.33
2019-05-22T21:09:13.833Z,7.43
2019-05-22T21:11:42.163Z,6.03
2019-05-22T21:14:08.952Z,5.80
2019-05-22T21:16:35.733Z,5.70
2019-05-22T21:19:03.665Z,9.57
2019-05-22T21:21:31.782Z,6.50
2019-05-22T21:24:09.839Z,7.90
2019-05-22T21:26:28.131Z,6.10
2019-05-22T21:28:56.418Z,5.73
2019-05-22T21:31:24.022Z,7.13
2019-05-22T21:33:51.084Z,8.20
2019-05-22T21:36:19.385Z,8.13
2019-05-22T21:38:46.305Z,6.77
2019-05-22T21:41:13.309Z,7.73
2019-05-22T21:43:40.202Z,7.63
2019-05-22T21:46:06.854Z,10.33
2019-05-22T21:48:47.974Z,7.33
2019-05-22T21:51:17.650Z,10.43
2019-05-22T21:53:44.133Z,8.20
2019-05-22T21:56:10.639Z,9.73
2019-05-22T21:58:37.775Z,9.07
2019-05-22T22:01:22.434Z,11.37
2019-05-22T22:03:54.895Z,8.37
2019-05-22T22:06:22.559Z,9.10
2019-05-22T22:08:49.492Z,9.63
2019-05-22T22:11:17.699Z,12.77
2019-05-22T22:13:44.597Z,8.47
2019-05-22T22:16:12.049Z,8.03
2019-05-22T22:18:39.281Z,12.27
2019-05-22T22:21:05.872Z,8.13
2019-05-22T22:23:35.723Z,8.03
2019-05-22T22:26:03.153Z,8.57
2019-05-22T22:28:30.628Z,10.40
2019-05-22T22:30:59.736Z,8.50
2019-05-22T22:33:28.013Z,8.67
2019-05-22T22:35:54.697Z,13.23
2019-05-22T22:38:24.115Z,8.90
2019-05-22T22:40:51.194Z,8.53
2019-05-22T22:43:17.870Z,10.10
2019-05-22T22:45:53.710Z,11.37
2019-05-22T22:48:22.931Z,10.60
2019-05-22T22:50:49.528Z,11.53
2019-05-22T22:53:17.776Z,11.70
2019-05-22T22:55:44.457Z,9.30
2019-05-22T22:58:17.166Z,8.43
2019-05-22T23:00:42.763Z,9.73
2019-05-22T23:03:10.971Z,11.27
2019-05-22T23:05:38.083Z,11.03
2019-05-22T23:08:07.242Z,8.97
2019-05-22T23:10:34.397Z,9.43
2019-05-22T23:13:00.995Z,8.20
2019-05-22T23:15:29.105Z,9.60
2019-05-22T23:17:55.749Z,8.27
2019-05-22T23:20:21.937Z,10.57
2019-05-22T23:22:48.710Z,8.63
2019-05-22T23:25:16.448Z,10.13
2019-05-22T23:27:44.538Z,13.13
2019-05-22T23:30:11.180Z,9.43
2019-05-22T23:32:38.397Z,9.13
2019-05-22T23:35:06.949Z,9.10
2019-05-22T23:37:34.987Z,12.03
2019-05-22T23:40:02.187Z,11.80
2019-05-22T23:42:34.382Z,10.73
2019-05-22T23:45:02.953Z,9.73
2019-05-22T23:47:31.358Z,9.50
2019-05-22T23:49:58.004Z,9.57
2019-05-22T23:52:25.179Z,10.53
2019-05-22T23:54:53.178Z,10.00
2019-05-22T23:57:19.955Z,15.53
2019-05-22T23:59:50.170Z,13.80
